createdAt,value
2016-11-21T00:04:43.443Z,0
2016-11-21T00:09:47.536Z,0
2016-11-21T00:14:52.301Z,0
2016-11-21T00:19:56.391Z,0
2016-11-21T00:25:00.493Z,0
2016-11-21T00:30:04.919Z,0
2016-11-21T00:35:09.009Z,0
2016-11-21T00:40:13.433Z,0
2016-11-21T00:45:17.529Z,0
2016-11-21T00:50:21.959Z,0
2016-11-21T00:55:26.382Z,0
2016-11-21T01:00:31.481Z,0
2016-11-21T01:05:35.912Z,0
2016-11-21T01:10:40.338Z,0
2016-11-21T01:15:44.765Z,0
2016-11-21T01:20:49.191Z,0
2016-11-21T01:25:53.619Z,0
2016-11-21T01:30:57.709Z,0
2016-11-21T01:36:01.800Z,0
2016-11-21T01:41:05.888Z,0
2016-11-21T01:46:10.316Z,0
2016-11-21T01:51:14.407Z,0
2016-11-21T01:56:18.827Z,0
2016-11-21T02:01:23.587Z,0
2016-11-21T02:06:27.691Z,0
2016-11-21T02:11:31.766Z,0
2016-11-21T02:16:35.844Z,0
2016-11-21T02:21:40.269Z,0
2016-11-21T02:26:45.026Z,0
2016-11-21T02:31:49.779Z,0
2016-11-21T02:36:53.865Z,0
2016-11-21T02:41:57.948Z,0
2016-11-21T02:47:02.035Z,0
2016-11-21T02:52:06.458Z,0
2016-11-21T02:57:10.880Z,0
2016-11-21T03:02:14.972Z,0
2016-11-21T03:07:19.063Z,0
2016-11-21T03:12:23.157Z,0
2016-11-21T03:17:27.239Z,0
2016-11-21T03:22:31.680Z,0
2016-11-21T03:27:36.094Z,0
2016-11-21T03:32:40.514Z,0
2016-11-21T03:37:44.937Z,0
2016-11-21T03:42:49.360Z,0
2016-11-21T03:47:53.444Z,0
2016-11-21T03:52:57.873Z,0
2016-11-21T03:58:01.971Z,0
2016-11-21T04:03:06.068Z,0
2016-11-21T04:08:10.494Z,0
2016-11-21T04:13:14.912Z,0
2016-11-21T04:18:18.996Z,0
2016-11-21T04:23:23.422Z,0
2016-11-21T04:28:27.504Z,0
2016-11-21T04:33:32.261Z,0
2016-11-21T04:38:36.340Z,0
2016-11-21T04:43:40.758Z,0
2016-11-21T04:48:44.847Z,0
2016-11-21T04:53:48.931Z,0
2016-11-21T04:58:53.015Z,0
2016-11-21T05:03:57.778Z,0
2016-11-21T05:09:01.877Z,0
2016-11-21T05:14:05.970Z,0
2016-11-21T05:19:10.059Z,0
2016-11-21T05:24:14.161Z,0
2016-11-21T05:29:18.278Z,0
2016-11-21T05:34:22.385Z,0
2016-11-21T05:39:26.819Z,0
2016-11-21T05:44:31.242Z,0
2016-11-21T05:49:35.339Z,0
2016-11-21T05:54:39.872Z,0
2016-11-21T05:59:43.968Z,0
2016-11-21T06:04:48.053Z,0
2016-11-21T06:09:52.479Z,0
2016-11-21T06:14:56.713Z,0
2016-11-21T06:20:00.803Z,0
2016-11-21T06:25:04.888Z,1
2016-11-21T06:30:09.317Z,0
2016-11-21T06:35:13.741Z,1
2016-11-21T06:40:17.835Z,1
2016-11-21T06:45:22.928Z,2
2016-11-21T06:50:27.036Z,3
2016-11-21T06:55:31.471Z,5
2016-11-21T07:00:35.894Z,7
2016-11-21T07:05:40.323Z,11
2016-11-21T07:10:44.413Z,13
2016-11-21T07:15:48.504Z,19
2016-11-21T07:20:52.957Z,31
2016-11-21T07:25:57.393Z,57
2016-11-21T07:31:01.476Z,82
2016-11-21T07:36:05.566Z,98
2016-11-21T07:41:09.666Z,148
2016-11-21T07:46:13.766Z,225
2016-11-21T07:51:18.533Z,259
2016-11-21T07:56:22.619Z,226
2016-11-21T08:01:26.704Z,274
2016-11-21T08:06:30.798Z,318
2016-11-21T08:11:34.896Z,357
2016-11-21T08:16:39.325Z,365
2016-11-21T08:21:43.426Z,389
2016-11-21T08:26:47.845Z,400
2016-11-21T08:31:51.930Z,410
2016-11-21T08:36:56.014Z,474
2016-11-21T08:42:00.105Z,462
2016-11-21T08:47:04.193Z,464
2016-11-21T08:52:08.281Z,405
2016-11-21T08:57:12.372Z,368
2016-11-21T09:02:16.797Z,340
2016-11-21T09:07:21.218Z,361
2016-11-21T09:12:25.315Z,367
2016-11-21T09:17:30.413Z,316
2016-11-21T09:22:34.503Z,505
2016-11-21T09:27:38.603Z,437
2016-11-21T09:32:42.696Z,444
2016-11-21T09:37:47.127Z,429
2016-11-21T09:42:51.221Z,357
2016-11-21T09:47:55.321Z,371
2016-11-21T09:53:00.088Z,405
2016-11-21T09:58:04.181Z,487
2016-11-21T10:03:08.296Z,362
2016-11-21T10:08:12.734Z,351
2016-11-21T10:13:16.828Z,295
2016-11-21T10:18:20.924Z,255
2016-11-21T10:23:25.346Z,280
2016-11-21T10:28:29.434Z,266
2016-11-21T10:33:33.538Z,273
2016-11-21T10:38:38.970Z,240
2016-11-21T10:43:43.400Z,197
2016-11-21T10:48:48.163Z,201
2016-11-21T10:53:52.255Z,320
2016-11-21T10:58:56.681Z,274
2016-11-21T11:04:01.109Z,245
2016-11-21T11:09:05.527Z,253
2016-11-21T11:14:09.947Z,336
2016-11-21T11:19:14.380Z,364
2016-11-21T11:24:18.471Z,375
2016-11-21T11:29:22.565Z,352
2016-11-21T11:34:26.678Z,437
2016-11-21T11:39:31.108Z,432
2016-11-21T11:44:35.200Z,279
2016-11-21T11:49:39.628Z,173
2016-11-21T11:54:43.716Z,178
2016-11-21T11:59:47.807Z,248
2016-11-21T12:04:52.239Z,480
2016-11-21T12:09:56.664Z,419
2016-11-21T12:15:00.748Z,353
2016-11-21T12:20:05.508Z,261
2016-11-21T12:25:10.272Z,226
2016-11-21T12:30:14.365Z,225
2016-11-21T12:35:18.452Z,198
2016-11-21T12:40:22.873Z,244
2016-11-21T12:45:27.299Z,302
2016-11-21T12:50:31.387Z,282
2016-11-21T12:55:35.472Z,268
2016-11-21T13:00:39.762Z,234
2016-11-21T13:05:43.856Z,261
2016-11-21T13:10:48.283Z,246
2016-11-21T13:15:52.709Z,232
2016-11-21T13:20:56.794Z,190
2016-11-21T13:26:00.883Z,172
2016-11-21T13:31:04.993Z,169
2016-11-21T13:36:09.422Z,152
2016-11-21T13:41:14.034Z,128
2016-11-21T13:46:18.110Z,116
2016-11-21T13:51:22.940Z,134
2016-11-21T13:56:27.033Z,138
2016-11-21T14:01:31.794Z,141
2016-11-21T14:06:36.557Z,138
2016-11-21T14:12:10.507Z,137
2016-11-21T14:17:15.283Z,138
2016-11-21T14:22:19.385Z,109
2016-11-21T14:27:23.856Z,74
2016-11-21T14:32:27.975Z,66
2016-11-21T14:37:32.413Z,62
2016-11-21T14:42:36.556Z,52
2016-11-21T14:47:40.711Z,44
2016-11-21T14:52:44.813Z,39
2016-11-21T14:57:48.899Z,32
2016-11-21T15:02:53.053Z,23
2016-11-21T15:07:57.240Z,17
2016-11-21T15:13:01.701Z,14
2016-11-21T15:18:05.820Z,12
2016-11-21T15:23:10.259Z,9
2016-11-21T15:28:14.715Z,5
2016-11-21T15:33:18.808Z,3
2016-11-21T15:38:23.236Z,2
2016-11-21T15:43:27.876Z,1
2016-11-21T15:48:31.948Z,1
2016-11-21T15:53:36.712Z,0
2016-11-21T15:58:40.867Z,0
2016-11-21T16:03:45.687Z,0
2016-11-21T16:08:50.123Z,0
2016-11-21T16:13:54.568Z,0
2016-11-21T16:18:59.379Z,0
2016-11-21T16:24:03.513Z,0
2016-11-21T16:29:07.948Z,0
2016-11-21T16:34:12.072Z,0
2016-11-21T16:39:16.739Z,0
2016-11-21T16:44:20.858Z,0
2016-11-21T16:49:25.052Z,0
2016-11-21T16:54:29.822Z,1
2016-11-21T16:59:33.916Z,1
2016-11-21T17:04:38.010Z,1
2016-11-21T17:09:42.118Z,1
2016-11-21T17:14:46.237Z,1
2016-11-21T17:19:50.689Z,1
2016-11-21T17:24:54.785Z,1
2016-11-21T17:29:59.699Z,1
2016-11-21T17:35:04.191Z,1
2016-11-21T17:40:08.621Z,1
2016-11-21T17:45:12.915Z,1
2016-11-21T17:50:17.369Z,1
2016-11-21T17:55:21.869Z,1
2016-11-21T18:00:26.309Z,1
2016-11-21T18:05:30.742Z,1
2016-11-21T18:10:34.884Z,1
2016-11-21T18:15:39.253Z,1
2016-11-21T18:20:43.377Z,1
2016-11-21T18:25:48.147Z,1
2016-11-21T18:30:52.243Z,1
2016-11-21T18:35:56.339Z,1
2016-11-21T18:41:00.463Z,2
2016-11-21T18:46:04.902Z,1
2016-11-21T18:51:10.366Z,1
2016-11-21T18:56:14.792Z,2
2016-11-21T19:01:19.240Z,2
2016-11-21T19:06:23.381Z,1
2016-11-21T19:11:27.640Z,1
2016-11-21T19:16:32.014Z,1
2016-11-21T19:21:36.135Z,1
2016-11-21T19:26:40.235Z,0
2016-11-21T19:31:44.327Z,0
2016-11-21T19:36:49.454Z,0
2016-11-21T19:41:53.886Z,0
2016-11-21T19:46:58.017Z,1
2016-11-21T19:52:02.158Z,1
2016-11-21T19:57:06.458Z,1
2016-11-21T20:02:10.642Z,0
2016-11-21T20:07:14.747Z,0
2016-11-21T20:12:19.222Z,0
2016-11-21T20:17:24.322Z,0
2016-11-21T20:22:28.422Z,0
2016-11-21T20:27:33.198Z,0
2016-11-21T20:32:37.299Z,0
2016-11-21T20:37:41.753Z,0
2016-11-21T20:42:45.837Z,0
2016-11-21T20:47:49.946Z,0
2016-11-21T20:52:54.055Z,0
2016-11-21T20:57:58.484Z,0
2016-11-21T21:03:02.927Z,0
2016-11-21T21:08:07.023Z,0
2016-11-21T21:13:11.160Z,0
2016-11-21T21:18:15.579Z,0
2016-11-21T21:23:19.696Z,0
2016-11-21T21:28:24.138Z,0
2016-11-21T21:33:28.238Z,2
2016-11-21T21:38:33.376Z,1
2016-11-21T21:43:37.517Z,0
2016-11-21T21:48:41.645Z,0
2016-11-21T21:53:46.119Z,0
2016-11-21T21:58:50.230Z,0
2016-11-21T22:03:55.011Z,0
2016-11-21T22:08:59.449Z,0
2016-11-21T22:14:03.547Z,0
2016-11-21T22:19:07.990Z,0
2016-11-21T22:24:12.765Z,0
2016-11-21T22:29:16.862Z,0
2016-11-21T22:34:21.290Z,0
2016-11-21T22:39:25.724Z,0
2016-11-21T22:44:30.835Z,0
2016-11-21T22:49:35.258Z,0
2016-11-21T22:54:39.704Z,0
2016-11-21T22:59:43.799Z,0
2016-11-21T23:04:47.893Z,0
2016-11-21T23:09:51.987Z,0
2016-11-21T23:14:56.080Z,0
2016-11-21T23:20:00.513Z,0
2016-11-21T23:25:04.610Z,0
2016-11-21T23:30:09.385Z,0
2016-11-21T23:35:13.811Z,0
2016-11-21T23:40:17.907Z,0
2016-11-21T23:45:22.345Z,0
2016-11-21T23:50:26.769Z,0
2016-11-21T23:55:31.210Z,0
